Aviation Digital Data Service (ADDS)

Output produced by METARs form (2053 UTC 23 January 2017)
found at http://www.aviationweather.gov/adds/metars/
 
KATL 231933Z 2320/2424 31020G31KT P6SM OVC025 
     TEMPO 2400/2402 SCT025 
     FM240200 31015G25KT P6SM SCT025 
     FM240600 31012KT P6SM SKC 
     FM241400 29012G18KT P6SM SKC